Latest Weather Observations for Cooktown

IDQ60801

Issued at 12:32 pm EST Thursday 23 February 2017 (issued every 30 minutes, with the page automatically refreshed every 10 minutes)

About weather observations | Map of weather stations | Latest weather observations for QLD | Other Formats
Station Details ID: 031209 Name: COOKTOWN AIRPORT Lat: -15.45 Lon: 145.19 Height: 4.8 m
Data from the previous 72 hours. | See also: Recent months at Cooktown
Date/Time
EST
Temp
°C
App
Temp
°C
Dew
Point
°C
Rel
Hum
%
Delta-T
°C
Wind Press
QNH
hPa
Press
MSL
hPa
Rain since
9am
mm
Dir  Spd
km/h
Gust
km/h
Spd
kts
Gust
kts
23/12:00pm 31.0 33.5 24.7 69 4.4 SE 20 32 11 17 1012.3 1012.2 0.0
23/11:30am 30.8 32.8 24.5 69 4.4 E 22 30 12 16 1012.5 - 0.0
23/11:00am 30.3 32.5 24.3 70 4.2 SE 20 32 11 17 1012.7 - 0.0
23/10:30am 30.4 32.7 24.4 70 4.2 ESE 20 28 11 15 1012.7 - 0.0
23/10:00am 30.2 32.8 24.6 72 3.9 ESE 19 28 10 15 1012.9 - 0.0
23/09:30am 29.7 31.6 23.8 70 4.1 ESE 20 30 11 16 1013.1 - 0.0
23/09:00am 29.6 32.5 23.8 71 4.0 ESE 15 19 8 10 1013.0 1012.8 0.2
23/08:30am 29.0 32.5 23.5 72 3.8 SE 11 19 6 10 1012.7 - 0.2
23/08:00am 27.6 33.1 24.1 81 2.4 NE 2 6 1 3 1012.3 - 0.2
23/07:30am 25.1 30.7 23.6 91 1.0 CALM 0 0 0 0 1012.0 - 0.2
23/07:00am 24.0 29.4 23.3 96 0.5 CALM 0 0 0 0 1011.8 - 0.2
23/06:30am 23.4 28.6 22.8 96 0.4 CALM 0 7 0 4 1011.9 - 0.2
23/06:00am 23.5 27.6 22.9 96 0.4 NW 6 7 3 4 1011.8 1011.7 0.2
23/05:30am 23.7 28.6 23.0 96 0.5 SW 2 7 1 4 1011.7 - 0.2
23/05:00am 23.7 28.6 23.0 96 0.5 SE 2 7 1 4 1011.2 - 0.2
23/04:30am 23.9 29.0 22.7 93 0.8 CALM 0 6 0 3 1011.8 - 0.2
23/04:00am 24.2 29.4 22.9 92 0.9 CALM 0 0 0 0 1011.8 - 0.2
23/03:30am 24.0 28.7 22.7 92 0.9 WSW 2 7 1 4 1011.7 - 0.2
23/03:00am 23.8 27.5 22.3 91 1.0 WNW 6 7 3 4 1011.6 1011.5 0.2
23/02:30am 24.0 28.1 22.2 90 1.2 WSW 4 7 2 4 1011.7 - 0.2
23/02:00am 24.5 29.1 21.8 85 1.8 CALM 0 0 0 0 1012.1 - 0.2
23/01:30am 24.8 29.4 21.8 83 2.0 CALM 0 0 0 0 1012.6 - 0.2
23/01:00am 25.4 29.1 22.3 83 2.1 WSW 6 11 3 6 1013.1 - 0.2
23/12:30am 25.4 29.6 23.2 88 1.5 SSW 6 7 3 4 1013.4 - 0.2
23/12:00am 25.8 29.3 21.9 79 2.6 NE 6 9 3 5 1013.4 1013.3 0.2
 
Date/Time
EST
Temp
°C
App
Temp
°C
Dew
Point
°C
Rel
Hum
%
Delta-T
°C
Wind Press
QNH
hPa
Press
MSL
hPa
Rain since
9am
mm
Dir  Spd
km/h
Gust
km/h
Spd
kts
Gust
kts
22/11:30pm 26.0 31.8 24.6 92 1.0 WNW 2 11 1 6 1013.4 - 0.2
22/11:00pm 25.5 30.5 24.5 94 0.7 W 6 9 3 5 1013.5 - 0.2
22/10:30pm 26.1 32.4 24.8 92 0.9 CALM 0 0 0 0 1013.4 - 0.2
22/10:00pm 26.1 31.0 24.7 92 1.0 WNW 7 9 4 5 1013.3 - 0.2
22/09:30pm 26.3 32.6 24.7 91 1.1 CALM 0 0 0 0 1012.8 - 0.2
22/09:00pm 26.3 32.6 24.7 91 1.1 CALM 0 0 0 0 1012.3 1012.1 0.2
22/08:30pm 27.0 31.5 24.0 83 2.1 S 7 7 4 4 1012.0 - 0.2
22/08:00pm 27.3 31.9 24.1 83 2.2 SSE 7 9 4 5 1011.9 - 0.2
22/07:30pm 27.5 31.6 23.9 81 2.5 SE 9 15 5 8 1011.5 - 0.2
22/07:00pm 27.6 31.0 23.4 78 2.9 ESE 11 13 6 7 1011.0 - 0.2
22/06:30pm 28.0 31.1 22.9 74 3.5 ESE 11 17 6 9 1010.6 - 0.2
22/06:00pm 29.1 30.7 23.3 71 4.0 E 20 26 11 14 1010.3 1010.1 0.2
22/05:30pm 29.3 31.5 24.0 73 3.7 ESE 19 26 10 14 1010.0 - 0.2
22/05:00pm 29.1 31.7 23.9 73 3.6 ESE 17 26 9 14 1010.0 - 0.2
22/04:30pm 29.6 31.3 24.0 72 3.9 ESE 22 30 12 16 1009.5 - 0.2
22/03:30pm 30.3 32.3 24.0 69 4.4 E 20 30 11 16 1009.4 - 0.2
22/03:00pm 30.5 32.1 24.5 70 4.2 E 24 33 13 18 1009.6 1009.6 0.2
22/02:30pm 30.7 33.3 24.9 71 4.1 ESE 20 28 11 15 1010.0 - 0.2
22/02:00pm 30.5 32.5 24.6 70 4.1 E 22 33 12 18 1010.2 - 0.2
22/01:30pm 30.2 32.7 24.8 73 3.8 E 20 28 11 15 1010.9 - 0.2
22/01:00pm 30.5 32.7 24.8 71 4.0 ESE 22 30 12 16 1011.1 - 0.2
22/12:30pm 30.9 33.6 25.1 71 4.1 E 20 30 11 16 1011.6 - 0.2
22/12:00pm 30.8 33.0 24.2 68 4.6 E 20 26 11 14 1012.0 1011.9 0.2
22/11:30am 30.7 33.1 24.2 68 4.5 E 19 24 10 13 1012.2 - 0.2
22/11:00am 29.6 32.6 24.0 72 3.9 SE 15 20 8 11 1012.5 - 0.2
22/10:30am 29.5 32.8 24.5 74 3.5 ESE 15 22 8 12 1012.8 - 0.2
22/10:00am 28.9 34.4 25.3 81 2.5 ENE 6 9 3 5 1013.0 - 0.0
22/09:30am 28.0 32.9 24.7 82 2.3 NE 7 11 4 6 1012.9 - 0.0
22/09:00am 28.3 32.8 24.0 77 3.0 ENE 7 11 4 6 1012.8 1012.7 16.6
22/08:30am 26.9 32.0 24.6 87 1.6 NW 6 9 3 5 1012.7 - 16.6
22/08:00am 25.5 30.2 24.3 93 0.8 NW 7 9 4 5 1012.5 - 16.6
22/07:30am 24.8 29.5 23.9 95 0.6 W 6 9 3 5 1012.4 - 16.6
22/07:00am 24.4 30.1 23.7 96 0.5 CALM 0 0 0 0 1012.0 - 16.6
22/06:30am 24.2 29.6 23.3 95 0.6 CALM 0 6 0 3 1011.7 - 16.6
22/06:16am 24.4 27.8 23.4 94 0.7 NNE 11 13 6 7 1011.7 - 16.6
22/06:00am 24.8 27.4 23.3 91 1.0 ENE 15 28 8 15 1011.8 1011.7 16.6
22/05:49am 24.7 27.1 23.7 94 0.7 ENE 17 20 9 11 1011.8 - 16.6
22/05:30am 23.9 29.5 23.6 98 0.2 CALM 0 7 0 4 1011.5 - 16.6
22/05:00am 23.8 29.4 23.5 98 0.2 CALM 0 0 0 0 1011.1 - 16.6
22/04:30am 23.9 29.5 23.6 98 0.2 CALM 0 0 0 0 1010.8 - 16.6
22/04:00am 23.8 28.1 23.7 99 0.1 W 7 9 4 5 1010.7 - 16.6
22/03:30am 24.0 29.3 23.7 98 0.2 W 2 6 1 3 1010.7 - 16.6
22/03:00am 24.0 29.7 23.7 98 0.2 CALM 0 0 0 0 1011.0 1010.9 16.6
22/02:30am 24.3 30.1 23.9 98 0.3 CALM 0 0 0 0 1011.1 - 16.6
22/02:00am 24.2 28.9 23.9 98 0.2 WNW 6 7 3 4 1011.5 - 16.6
22/01:30am 24.4 29.1 24.0 98 0.3 NW 6 7 3 4 1011.8 - 16.6
22/01:00am 24.4 29.5 24.0 98 0.3 S 4 6 2 3 1011.9 - 16.6
22/12:30am 24.2 28.7 23.9 98 0.2 W 7 9 4 5 1012.4 - 16.6
22/12:00am 24.3 29.3 23.9 98 0.3 ESE 4 11 2 6 1012.9 1012.8 16.6
 
Date/Time
EST
Temp
°C
App
Temp
°C
Dew
Point
°C
Rel
Hum
%
Delta-T
°C
Wind Press
QNH
hPa
Press
MSL
hPa
Rain since
9am
mm
Dir  Spd
km/h
Gust
km/h
Spd
kts
Gust
kts
21/11:38pm 24.1 29.0 23.7 98 0.3 SSE 4 7 2 4 1013.0 - 16.6
21/11:30pm 24.1 29.8 23.7 98 0.3 CALM 0 0 0 0 1013.1 - 16.6
21/11:19pm 24.3 30.1 23.9 98 0.3 CALM 0 0 0 0 1013.4 - 16.6
21/11:00pm 24.3 30.1 24.0 98 0.2 CALM 0 0 0 0 1013.5 - 16.6
21/10:30pm 24.4 30.3 24.1 98 0.2 CALM 0 0 0 0 1013.7 - 16.6
21/10:00pm 24.6 30.6 24.2 98 0.3 CALM 0 0 0 0 1013.6 - 16.6
21/09:30pm 24.8 30.9 24.4 98 0.3 CALM 0 0 0 0 1013.5 - 16.6
21/09:00pm 24.8 30.5 24.4 98 0.3 WNW 2 7 1 4 1012.8 1012.7 16.6
21/08:30pm 24.8 29.4 24.2 96 0.4 W 7 11 4 6 1012.5 - 16.6
21/08:00pm 25.0 31.0 24.3 96 0.5 CALM 0 0 0 0 1012.0 - 16.4
21/07:30pm 24.9 29.0 23.9 94 0.7 E 9 11 5 6 1011.5 - 16.4
21/07:00pm 25.5 31.5 24.2 92 0.9 CALM 0 0 0 0 1011.7 - 16.4
21/06:30pm 26.1 30.3 24.1 89 1.4 NNE 9 15 5 8 1011.5 - 15.8
21/06:00pm 27.1 31.6 25.2 89 1.3 E 11 15 6 8 1011.1 1010.9 15.8
21/05:30pm 27.3 33.3 25.5 90 1.3 S 4 6 2 3 1010.7 - 15.8
21/05:00pm 27.0 32.4 25.1 89 1.3 SE 6 7 3 4 1010.6 - 15.8
21/04:30pm 27.0 32.8 25.1 89 1.3 SW 4 7 2 4 1010.3 - 15.8
21/04:00pm 26.1 31.3 24.8 92 0.9 SSW 6 9 3 5 1010.1 - 15.8
21/03:30pm 25.4 31.2 24.5 95 0.6 N 2 6 1 3 1010.3 - 15.8
21/03:00pm 24.8 28.5 23.9 95 0.6 ESE 11 15 6 8 1010.1 1009.9 15.8
21/02:58pm 24.8 28.5 23.9 95 0.6 ESE 11 15 6 8 1010.1 - 15.8
21/02:30pm 24.5 29.7 23.6 95 0.6 NNE 2 19 1 10 1010.5 - 12.8
21/02:08pm 25.8 27.7 24.4 92 1.0 N 22 28 12 15 1010.9 - 2.6
21/02:00pm 28.0 35.3 26.3 90 1.2 CALM 0 7 0 4 1010.8 - 1.2
21/01:30pm 27.6 32.9 25.9 90 1.2 ESE 9 11 5 6 1010.7 - 1.2
21/01:00pm 27.0 31.6 24.7 87 1.6 E 9 13 5 7 1011.3 - 1.2
21/12:44pm 26.5 28.6 23.7 84 1.9 E 19 24 10 13 1011.5 - 0.8
21/12:33pm 27.1 31.1 25.1 89 1.4 ENE 13 19 7 10 1011.8 - 0.6
21/12:30pm 27.4 32.1 25.6 90 1.3 NE 11 17 6 9 1011.9 - 0.6
21/12:00pm 29.2 33.1 25.5 80 2.6 E 15 22 8 12 1012.0 1012.0 0.0
21/11:30am 29.1 33.8 25.6 81 2.5 ENE 11 17 6 9 1012.4 - 0.0
21/11:13am 29.8 35.4 25.7 78 2.9 ESE 7 11 4 6 1012.4 - 0.0
21/11:00am 29.9 34.9 25.4 77 3.2 NNE 9 13 5 7 1012.6 - 0.0
21/10:30am 30.2 35.6 25.4 75 3.4 N 7 13 4 7 1012.7 - 0.0
21/10:00am 29.2 35.7 25.7 81 2.5 N 2 7 1 4 1012.9 - 0.0
21/09:30am 28.4 34.3 25.4 84 2.1 NNW 4 9 2 5 1012.7 - 0.0
21/09:00am 28.0 34.8 25.6 87 1.7 CALM 0 0 0 0 1012.3 1012.2 11.8
21/08:30am 27.0 32.5 25.3 90 1.2 SSW 6 9 3 5 1012.1 - 11.8
21/08:11am 26.5 33.1 25.2 92 0.9 CALM 0 0 0 0 1012.0 - 11.8
21/08:00am 26.0 32.3 24.7 92 0.9 CALM 0 0 0 0 1011.9 - 11.8
21/07:30am 24.9 31.0 24.5 98 0.3 CALM 0 0 0 0 1011.8 - 11.8
21/07:26am 24.8 30.9 24.5 98 0.2 CALM 0 0 0 0 1011.8 - 11.8
21/07:00am 24.2 30.0 23.9 98 0.2 CALM 0 0 0 0 1011.5 - 11.6
21/06:30am 23.6 29.0 23.2 98 0.3 CALM 0 0 0 0 1010.9 - 11.6
21/06:00am 23.8 29.0 23.5 98 0.2 WNW 2 6 1 3 1010.7 1010.6 11.6
21/05:30am 23.7 29.2 23.4 98 0.2 CALM 0 0 0 0 1010.2 - 11.6
21/05:00am 23.9 29.5 23.6 98 0.2 CALM 0 0 0 0 1010.1 - 11.6
21/04:30am 23.9 29.6 23.8 99 0.1 CALM 0 0 0 0 1009.9 - 11.6
21/04:18am 23.9 29.5 23.6 98 0.2 CALM 0 6 0 3 1009.7 - 11.6
21/04:06am 23.8 28.1 23.7 99 0.1 WNW 7 9 4 5 1009.8 - 11.6
21/04:00am 23.9 28.3 23.8 99 0.1 WNW 7 9 4 5 1009.7 - 11.6
21/03:30am 24.1 28.5 23.8 98 0.2 NW 7 9 4 5 1009.4 - 11.6
21/03:01am 24.2 28.6 23.8 98 0.3 WNW 7 9 4 5 1009.5 - 11.6
21/03:00am 24.2 29.2 23.8 98 0.3 W 4 9 2 5 1009.5 1009.4 11.6
21/02:56am 24.2 29.2 23.8 98 0.3 W 4 7 2 4 1009.5 - 11.6
21/02:30am 24.2 29.2 23.9 98 0.2 SW 4 7 2 4 1009.7 - 11.6
21/02:21am 24.3 30.1 23.9 98 0.3 CALM 0 0 0 0 1009.7 - 11.6
21/02:00am 24.3 30.1 24.0 98 0.2 CALM 0 0 0 0 1010.0 - 11.6
21/01:30am 24.2 30.0 23.9 98 0.2 CALM 0 4 0 2 1010.4 - 11.6
21/01:13am 24.4 29.1 24.0 98 0.3 SW 6 7 3 4 1010.4 - 11.6
21/01:00am 24.4 30.2 24.0 98 0.3 CALM 0 6 0 3 1010.6 - 11.6
21/12:30am 24.3 28.8 24.0 98 0.2 WNW 7 9 4 5 1011.2 - 11.6
21/12:03am 24.4 28.5 24.0 98 0.3 WNW 9 11 5 6 1011.4 - 11.6
21/12:00am 24.4 29.0 24.1 98 0.2 WNW 7 11 4 6 1011.4 1011.3 11.6
 
Date/Time
EST
Temp
°C
App
Temp
°C
Dew
Point
°C
Rel
Hum
%
Delta-T
°C
Wind Press
QNH
hPa
Press
MSL
hPa
Rain since
9am
mm
Dir  Spd
km/h
Gust
km/h
Spd
kts
Gust
kts
20/11:48pm 24.4 28.6 24.1 98 0.2 WNW 9 9 5 5 1011.5 - 11.6
20/11:30pm 24.5 30.5 24.2 98 0.2 CALM 0 0 0 0 1011.8 - 11.6
20/11:00pm 24.6 30.6 24.2 98 0.3 CALM 0 0 0 0 1012.1 - 11.6
20/10:30pm 24.6 30.6 24.3 98 0.2 CALM 0 0 0 0 1012.1 - 11.6
20/10:00pm 24.8 30.8 24.2 96 0.4 CALM 0 0 0 0 1012.1 - 11.6
20/09:30pm 24.9 29.7 24.2 96 0.5 E 6 7 3 4 1012.1 - 11.6
20/09:00pm 24.8 29.6 24.4 98 0.3 S 7 11 4 6 1011.6 1011.4 11.6
20/08:30pm 24.9 30.3 24.5 98 0.3 SW 4 6 2 3 1011.1 - 11.6
20/08:29pm 24.9 30.3 24.5 98 0.3 SW 4 6 2 3 1011.1 - 11.4
20/08:00pm 24.9 29.9 24.5 98 0.3 WNW 6 9 3 5 1011.0 - 8.0
20/07:56pm 25.0 29.5 24.6 98 0.3 NNW 9 19 5 10 1011.1 - 5.8
20/07:30pm 24.9 31.0 24.5 98 0.3 CALM 0 0 0 0 1010.4 - 4.8
20/07:00pm 24.8 30.5 24.4 98 0.3 NW 2 7 1 4 1010.0 - 4.6
20/06:41pm 24.8 30.0 24.2 96 0.4 ESE 4 7 2 4 1009.5 - 4.6
20/06:32pm 24.7 30.4 23.8 95 0.6 CALM 0 0 0 0 1009.6 - 4.6
20/06:30pm 24.6 30.4 23.9 96 0.5 CALM 0 0 0 0 1009.6 - 4.6
20/06:14pm 24.9 28.6 23.9 94 0.7 ENE 11 17 6 9 1009.6 - 2.4
20/06:00pm 25.4 30.0 24.1 92 0.9 NNW 7 13 4 7 1009.5 1009.3 1.4
20/05:58pm 25.4 30.0 24.2 93 0.8 N 7 13 4 7 1009.5 - 1.4
20/05:30pm 25.7 29.8 24.0 90 1.2 W 9 15 5 8 1008.7 - 1.2
20/05:00pm 26.3 30.2 24.3 89 1.4 S 11 17 6 9 1008.1 - 1.2
20/04:30pm 26.8 32.1 25.8 94 0.7 W 9 13 5 7 1007.9 - 1.2
20/04:00pm 26.7 32.2 25.6 94 0.8 S 7 9 4 5 1007.6 - 1.2
20/03:30pm 26.4 30.3 24.8 91 1.1 WNW 13 17 7 9 1007.8 - 1.2
20/03:00pm 29.2 33.1 24.9 77 3.0 ENE 13 17 7 9 1007.5 1007.3 1.0
20/02:30pm 28.9 30.9 25.1 80 2.7 E 24 33 13 18 1007.3 - 1.0
20/02:00pm 29.3 32.5 25.5 80 2.7 E 19 26 10 14 1007.8 - 1.0
20/01:30pm 29.1 34.3 26.3 85 2.0 SSW 11 19 6 10 1007.9 - 1.0
20/01:00pm 28.1 33.1 25.4 85 1.9 WNW 9 17 5 9 1008.7 - 1.0
20/12:46pm 28.8 33.7 25.8 84 2.1 E 11 17 6 9 1009.0 - 0.8

Other Formats:

Comma delimited format used in spreadsheet applications
http://www.bom.gov.au/fwo/IDQ60801/IDQ60801.95283.axf

JavaScript Object Notation format (JSON) in row-major order
http://www.bom.gov.au/fwo/IDQ60801/IDQ60801.95283.json